sensor_id;sensor_type;location;lat;lon;timestamp;temperature;humidity
15156;DHT22;7678;50.058;8.306;2022-08-18T00:00:03;22.40;91.50
15156;DHT22;7678;50.058;8.306;2022-08-18T00:02:38;22.40;91.20
15156;DHT22;7678;50.058;8.306;2022-08-18T00:05:15;22.40;91.20
15156;DHT22;7678;50.058;8.306;2022-08-18T00:07:45;22.30;91.90
15156;DHT22;7678;50.058;8.306;2022-08-18T00:10:14;22.20;92.20
15156;DHT22;7678;50.058;8.306;2022-08-18T00:12:46;22.20;92.40
15156;DHT22;7678;50.058;8.306;2022-08-18T00:15:15;22.10;92.20
15156;DHT22;7678;50.058;8.306;2022-08-18T00:17:44;22.00;93.20
15156;DHT22;7678;50.058;8.306;2022-08-18T00:20:14;21.80;93.30
15156;DHT22;7678;50.058;8.306;2022-08-18T00:22:43;21.90;93.40
15156;DHT22;7678;50.058;8.306;2022-08-18T00:25:13;21.90;93.60
15156;DHT22;7678;50.058;8.306;2022-08-18T00:27:41;21.90;94.10
15156;DHT22;7678;50.058;8.306;2022-08-18T00:30:14;21.80;94.20
15156;DHT22;7678;50.058;8.306;2022-08-18T00:32:47;21.70;94.30
15156;DHT22;7678;50.058;8.306;2022-08-18T00:35:18;21.70;94.60
15156;DHT22;7678;50.058;8.306;2022-08-18T00:37:47;21.80;94.40
15156;DHT22;7678;50.058;8.306;2022-08-18T00:40:19;21.70;95.00
15156;DHT22;7678;50.058;8.306;2022-08-18T00:42:49;21.80;94.70
15156;DHT22;7678;50.058;8.306;2022-08-18T00:45:23;21.90;94.40
15156;DHT22;7678;50.058;8.306;2022-08-18T00:47:53;21.90;94.20
15156;DHT22;7678;50.058;8.306;2022-08-18T00:50:26;21.90;94.50
15156;DHT22;7678;50.058;8.306;2022-08-18T00:52:57;21.90;94.80
15156;DHT22;7678;50.058;8.306;2022-08-18T00:55:28;21.80;94.90
15156;DHT22;7678;50.058;8.306;2022-08-18T00:58:01;21.70;95.30
15156;DHT22;7678;50.058;8.306;2022-08-18T01:00:32;21.70;95.40
15156;DHT22;7678;50.058;8.306;2022-08-18T01:03:04;21.70;95.60
15156;DHT22;7678;50.058;8.306;2022-08-18T01:05:36;21.70;95.20
15156;DHT22;7678;50.058;8.306;2022-08-18T01:08:08;21.70;95.10
15156;DHT22;7678;50.058;8.306;2022-08-18T01:10:40;21.70;94.30
15156;DHT22;7678;50.058;8.306;2022-08-18T01:13:08;21.60;95.00
15156;DHT22;7678;50.058;8.306;2022-08-18T01:15:38;21.60;94.60
15156;DHT22;7678;50.058;8.306;2022-08-18T01:18:10;21.70;94.20
15156;DHT22;7678;50.058;8.306;2022-08-18T01:21:03;21.70;94.30
15156;DHT22;7678;50.058;8.306;2022-08-18T01:24:06;21.60;94.30
15156;DHT22;7678;50.058;8.306;2022-08-18T01:26:37;21.70;94.40
15156;DHT22;7678;50.058;8.306;2022-08-18T01:29:11;21.70;93.70
15156;DHT22;7678;50.058;8.306;2022-08-18T01:31:48;21.90;93.30
15156;DHT22;7678;50.058;8.306;2022-08-18T01:34:24;21.70;93.80
15156;DHT22;7678;50.058;8.306;2022-08-18T01:36:54;21.70;92.30
15156;DHT22;7678;50.058;8.306;2022-08-18T01:39:24;21.70;92.30
15156;DHT22;7678;50.058;8.306;2022-08-18T01:42:14;21.70;91.20
15156;DHT22;7678;50.058;8.306;2022-08-18T01:44:44;21.80;90.90
15156;DHT22;7678;50.058;8.306;2022-08-18T01:47:14;21.70;90.30
15156;DHT22;7678;50.058;8.306;2022-08-18T01:49:44;21.80;90.00
15156;DHT22;7678;50.058;8.306;2022-08-18T01:52:15;21.80;88.70
15156;DHT22;7678;50.058;8.306;2022-08-18T01:54:52;21.90;88.20
15156;DHT22;7678;50.058;8.306;2022-08-18T01:57:24;21.80;88.40
15156;DHT22;7678;50.058;8.306;2022-08-18T01:59:52;21.80;89.40
15156;DHT22;7678;50.058;8.306;2022-08-18T02:02:23;21.80;90.00
15156;DHT22;7678;50.058;8.306;2022-08-18T02:04:55;21.70;90.60
15156;DHT22;7678;50.058;8.306;2022-08-18T02:07:25;21.60;90.80
15156;DHT22;7678;50.058;8.306;2022-08-18T02:10:04;21.60;91.20
15156;DHT22;7678;50.058;8.306;2022-08-18T02:12:38;21.50;91.80
15156;DHT22;7678;50.058;8.306;2022-08-18T02:15:07;21.40;92.40
15156;DHT22;7678;50.058;8.306;2022-08-18T02:17:36;21.30;92.90
15156;DHT22;7678;50.058;8.306;2022-08-18T02:20:06;21.20;93.40
15156;DHT22;7678;50.058;8.306;2022-08-18T02:22:35;21.10;93.70
15156;DHT22;7678;50.058;8.306;2022-08-18T02:25:06;21.10;93.90
15156;DHT22;7678;50.058;8.306;2022-08-18T02:27:35;21.00;94.30
15156;DHT22;7678;50.058;8.306;2022-08-18T02:30:06;21.00;94.60
15156;DHT22;7678;50.058;8.306;2022-08-18T02:32:38;21.00;94.60
15156;DHT22;7678;50.058;8.306;2022-08-18T02:35:08;21.00;94.60
15156;DHT22;7678;50.058;8.306;2022-08-18T02:37:37;21.00;95.40
15156;DHT22;7678;50.058;8.306;2022-08-18T02:40:10;21.00;94.50
15156;DHT22;7678;50.058;8.306;2022-08-18T02:42:41;21.00;94.70
15156;DHT22;7678;50.058;8.306;2022-08-18T02:45:12;20.90;95.50
15156;DHT22;7678;50.058;8.306;2022-08-18T02:47:41;20.90;95.10
15156;DHT22;7678;50.058;8.306;2022-08-18T02:50:14;20.80;95.20
15156;DHT22;7678;50.058;8.306;2022-08-18T02:52:46;20.80;95.70
15156;DHT22;7678;50.058;8.306;2022-08-18T02:55:16;20.80;95.60
15156;DHT22;7678;50.058;8.306;2022-08-18T02:57:46;20.90;95.30
15156;DHT22;7678;50.058;8.306;2022-08-18T03:00:19;21.00;94.60
15156;DHT22;7678;50.058;8.306;2022-08-18T03:02:51;21.00;95.00
15156;DHT22;7678;50.058;8.306;2022-08-18T03:05:20;21.00;94.50
15156;DHT22;7678;50.058;8.306;2022-08-18T03:07:48;21.00;95.00
15156;DHT22;7678;50.058;8.306;2022-08-18T03:10:18;20.90;95.70
15156;DHT22;7678;50.058;8.306;2022-08-18T03:13:00;20.80;95.00
15156;DHT22;7678;50.058;8.306;2022-08-18T03:15:28;20.80;94.90
15156;DHT22;7678;50.058;8.306;2022-08-18T03:17:56;21.00;94.20
15156;DHT22;7678;50.058;8.306;2022-08-18T03:20:25;21.20;94.30
15156;DHT22;7678;50.058;8.306;2022-08-18T03:22:57;21.10;94.90
15156;DHT22;7678;50.058;8.306;2022-08-18T03:25:34;20.90;94.40
15156;DHT22;7678;50.058;8.306;2022-08-18T03:28:02;21.00;94.20
15156;DHT22;7678;50.058;8.306;2022-08-18T03:30:32;21.00;94.60
15156;DHT22;7678;50.058;8.306;2022-08-18T03:33:03;20.90;94.70
15156;DHT22;7678;50.058;8.306;2022-08-18T03:35:33;20.90;94.70
15156;DHT22;7678;50.058;8.306;2022-08-18T03:38:02;20.90;94.90
15156;DHT22;7678;50.058;8.306;2022-08-18T03:40:30;20.90;95.00
15156;DHT22;7678;50.058;8.306;2022-08-18T03:43:03;20.90;94.70
15156;DHT22;7678;50.058;8.306;2022-08-18T03:45:52;20.90;94.60
15156;DHT22;7678;50.058;8.306;2022-08-18T03:48:21;20.90;94.80
15156;DHT22;7678;50.058;8.306;2022-08-18T03:50:49;20.90;94.70
15156;DHT22;7678;50.058;8.306;2022-08-18T03:53:17;20.80;95.30
15156;DHT22;7678;50.058;8.306;2022-08-18T03:55:45;20.70;95.60
15156;DHT22;7678;50.058;8.306;2022-08-18T03:58:15;20.60;95.90
15156;DHT22;7678;50.058;8.306;2022-08-18T04:00:43;20.50;96.30
15156;DHT22;7678;50.058;8.306;2022-08-18T04:03:11;20.50;96.30
15156;DHT22;7678;50.058;8.306;2022-08-18T04:05:39;20.40;96.50
15156;DHT22;7678;50.058;8.306;2022-08-18T04:08:08;20.40;96.50
15156;DHT22;7678;50.058;8.306;2022-08-18T04:10:36;20.40;96.60
15156;DHT22;7678;50.058;8.306;2022-08-18T04:13:05;20.40;96.40
15156;DHT22;7678;50.058;8.306;2022-08-18T04:15:36;20.40;96.20
15156;DHT22;7678;50.058;8.306;2022-08-18T04:18:04;20.40;96.40
15156;DHT22;7678;50.058;8.306;2022-08-18T04:20:34;20.40;96.30
15156;DHT22;7678;50.058;8.306;2022-08-18T04:23:02;20.40;96.50
15156;DHT22;7678;50.058;8.306;2022-08-18T04:25:30;20.40;96.40
15156;DHT22;7678;50.058;8.306;2022-08-18T04:28:00;20.40;96.20
15156;DHT22;7678;50.058;8.306;2022-08-18T04:30:29;20.40;96.20
15156;DHT22;7678;50.058;8.306;2022-08-18T04:33:01;20.60;95.90
15156;DHT22;7678;50.058;8.306;2022-08-18T04:35:32;20.70;95.60
15156;DHT22;7678;50.058;8.306;2022-08-18T04:38:00;20.50;96.40
15156;DHT22;7678;50.058;8.306;2022-08-18T04:40:28;20.40;96.90
15156;DHT22;7678;50.058;8.306;2022-08-18T04:42:59;20.50;96.70
15156;DHT22;7678;50.058;8.306;2022-08-18T04:45:27;20.50;96.70
15156;DHT22;7678;50.058;8.306;2022-08-18T04:47:56;20.50;96.50
15156;DHT22;7678;50.058;8.306;2022-08-18T04:50:25;20.40;96.90
15156;DHT22;7678;50.058;8.306;2022-08-18T04:52:53;20.40;97.20
15156;DHT22;7678;50.058;8.306;2022-08-18T04:55:45;20.50;97.00
15156;DHT22;7678;50.058;8.306;2022-08-18T04:58:14;20.40;97.00
15156;DHT22;7678;50.058;8.306;2022-08-18T05:00:43;20.50;97.10
15156;DHT22;7678;50.058;8.306;2022-08-18T05:03:12;20.40;97.10
15156;DHT22;7678;50.058;8.306;2022-08-18T05:05:41;20.40;97.30
15156;DHT22;7678;50.058;8.306;2022-08-18T05:08:09;20.40;97.70
15156;DHT22;7678;50.058;8.306;2022-08-18T05:10:40;20.40;97.90
15156;DHT22;7678;50.058;8.306;2022-08-18T05:13:11;20.60;97.20
15156;DHT22;7678;50.058;8.306;2022-08-18T05:15:40;20.70;96.50
15156;DHT22;7678;50.058;8.306;2022-08-18T05:18:29;20.80;96.30
15156;DHT22;7678;50.058;8.306;2022-08-18T05:21:00;20.70;96.20
15156;DHT22;7678;50.058;8.306;2022-08-18T05:23:32;20.60;97.00
15156;DHT22;7678;50.058;8.306;2022-08-18T05:26:02;20.50;97.20
15156;DHT22;7678;50.058;8.306;2022-08-18T05:28:32;20.50;97.90
15156;DHT22;7678;50.058;8.306;2022-08-18T05:31:07;20.50;97.50
15156;DHT22;7678;50.058;8.306;2022-08-18T05:33:41;20.60;97.50
15156;DHT22;7678;50.058;8.306;2022-08-18T05:36:23;20.70;97.30
15156;DHT22;7678;50.058;8.306;2022-08-18T05:39:01;20.70;97.60
15156;DHT22;7678;50.058;8.306;2022-08-18T05:41:33;20.70;97.70
15156;DHT22;7678;50.058;8.306;2022-08-18T05:44:03;20.60;96.80
15156;DHT22;7678;50.058;8.306;2022-08-18T05:46:37;20.60;97.30
15156;DHT22;7678;50.058;8.306;2022-08-18T05:49:07;20.60;97.30
15156;DHT22;7678;50.058;8.306;2022-08-18T05:51:40;20.60;98.00
15156;DHT22;7678;50.058;8.306;2022-08-18T05:54:09;20.60;96.90
15156;DHT22;7678;50.058;8.306;2022-08-18T05:57:00;20.80;97.70
15156;DHT22;7678;50.058;8.306;2022-08-18T05:59:32;20.80;98.40
15156;DHT22;7678;50.058;8.306;2022-08-18T06:02:05;20.70;99.70
15156;DHT22;7678;50.058;8.306;2022-08-18T06:04:42;20.60;99.90
15156;DHT22;7678;50.058;8.306;2022-08-18T06:07:25;20.50;99.90
15156;DHT22;7678;50.058;8.306;2022-08-18T06:10:00;20.40;99.90
15156;DHT22;7678;50.058;8.306;2022-08-18T06:12:32;20.40;99.90
15156;DHT22;7678;50.058;8.306;2022-08-18T06:15:09;20.50;99.90
15156;DHT22;7678;50.058;8.306;2022-08-18T06:18:01;20.40;99.90
15156;DHT22;7678;50.058;8.306;2022-08-18T06:20:44;20.30;99.90
15156;DHT22;7678;50.058;8.306;2022-08-18T06:23:24;20.30;99.90
15156;DHT22;7678;50.058;8.306;2022-08-18T06:26:06;20.60;99.90
15156;DHT22;7678;50.058;8.306;2022-08-18T06:28:52;20.70;99.90
15156;DHT22;7678;50.058;8.306;2022-08-18T06:31:30;20.60;99.90
15156;DHT22;7678;50.058;8.306;2022-08-18T06:34:10;20.70;99.90
15156;DHT22;7678;50.058;8.306;2022-08-18T06:36:50;20.70;99.90
15156;DHT22;7678;50.058;8.306;2022-08-18T06:39:28;20.80;99.90
15156;DHT22;7678;50.058;8.306;2022-08-18T06:42:00;20.70;99.90
15156;DHT22;7678;50.058;8.306;2022-08-18T06:44:36;20.70;99.90
15156;DHT22;7678;50.058;8.306;2022-08-18T06:47:13;20.80;99.90
15156;DHT22;7678;50.058;8.306;2022-08-18T06:49:45;20.60;99.90
15156;DHT22;7678;50.058;8.306;2022-08-18T06:52:20;20.50;99.90
15156;DHT22;7678;50.058;8.306;2022-08-18T06:54:52;20.40;99.90
15156;DHT22;7678;50.058;8.306;2022-08-18T06:57:25;20.40;99.90
15156;DHT22;7678;50.058;8.306;2022-08-18T06:59:56;20.30;99.90
15156;DHT22;7678;50.058;8.306;2022-08-18T07:02:36;20.40;99.90
15156;DHT22;7678;50.058;8.306;2022-08-18T07:05:15;20.40;99.90
15156;DHT22;7678;50.058;8.306;2022-08-18T07:07:45;20.50;99.90
15156;DHT22;7678;50.058;8.306;2022-08-18T07:10:30;20.70;99.90
15156;DHT22;7678;50.058;8.306;2022-08-18T07:13:17;20.70;99.90
15156;DHT22;7678;50.058;8.306;2022-08-18T07:15:46;20.80;99.90
15156;DHT22;7678;50.058;8.306;2022-08-18T07:18:22;20.90;99.90
15156;DHT22;7678;50.058;8.306;2022-08-18T07:20:55;20.90;99.90
15156;DHT22;7678;50.058;8.306;2022-08-18T07:23:27;20.90;99.90
15156;DHT22;7678;50.058;8.306;2022-08-18T07:26:06;20.90;99.90
15156;DHT22;7678;50.058;8.306;2022-08-18T07:28:39;20.90;99.90
15156;DHT22;7678;50.058;8.306;2022-08-18T07:33:49;20.90;99.90
15156;DHT22;7678;50.058;8.306;2022-08-18T07:36:19;20.90;99.90
15156;DHT22;7678;50.058;8.306;2022-08-18T07:38:52;21.10;99.90
15156;DHT22;7678;50.058;8.306;2022-08-18T07:41:29;21.40;99.90
15156;DHT22;7678;50.058;8.306;2022-08-18T07:44:05;21.40;99.90
15156;DHT22;7678;50.058;8.306;2022-08-18T07:46:50;21.50;99.90
15156;DHT22;7678;50.058;8.306;2022-08-18T07:49:27;21.60;99.90
15156;DHT22;7678;50.058;8.306;2022-08-18T07:52:00;21.60;99.90
15156;DHT22;7678;50.058;8.306;2022-08-18T07:55:06;21.60;99.90
15156;DHT22;7678;50.058;8.306;2022-08-18T07:57:43;21.60;99.90
15156;DHT22;7678;50.058;8.306;2022-08-18T08:00:19;21.50;99.90
15156;DHT22;7678;50.058;8.306;2022-08-18T08:03:29;21.40;99.90
15156;DHT22;7678;50.058;8.306;2022-08-18T08:06:08;21.30;99.90
15156;DHT22;7678;50.058;8.306;2022-08-18T08:08:43;21.20;99.90
15156;DHT22;7678;50.058;8.306;2022-08-18T08:11:22;21.20;99.90
15156;DHT22;7678;50.058;8.306;2022-08-18T08:14:15;21.30;99.90
15156;DHT22;7678;50.058;8.306;2022-08-18T08:17:00;21.30;99.90
15156;DHT22;7678;50.058;8.306;2022-08-18T08:19:58;21.40;99.90
15156;DHT22;7678;50.058;8.306;2022-08-18T08:22:37;21.30;99.90
15156;DHT22;7678;50.058;8.306;2022-08-18T08:25:11;21.40;99.90
15156;DHT22;7678;50.058;8.306;2022-08-18T08:28:08;21.40;99.90
15156;DHT22;7678;50.058;8.306;2022-08-18T08:30:47;21.30;99.90
15156;DHT22;7678;50.058;8.306;2022-08-18T08:33:22;21.30;99.90
15156;DHT22;7678;50.058;8.306;2022-08-18T08:35:55;21.40;99.90
15156;DHT22;7678;50.058;8.306;2022-08-18T08:38:35;21.60;99.90
15156;DHT22;7678;50.058;8.306;2022-08-18T08:41:18;21.50;99.90
15156;DHT22;7678;50.058;8.306;2022-08-18T08:44:01;21.50;99.90
15156;DHT22;7678;50.058;8.306;2022-08-18T08:46:41;21.60;99.90
15156;DHT22;7678;50.058;8.306;2022-08-18T08:49:22;21.70;99.90
15156;DHT22;7678;50.058;8.306;2022-08-18T08:51:57;21.80;99.90
15156;DHT22;7678;50.058;8.306;2022-08-18T08:54:38;21.90;99.90
15156;DHT22;7678;50.058;8.306;2022-08-18T08:57:09;22.00;99.90
15156;DHT22;7678;50.058;8.306;2022-08-18T08:59:38;21.90;99.90
15156;DHT22;7678;50.058;8.306;2022-08-18T09:05:17;21.70;99.90
15156;DHT22;7678;50.058;8.306;2022-08-18T09:08:05;22.00;99.90
15156;DHT22;7678;50.058;8.306;2022-08-18T09:10:57;22.10;99.90
15156;DHT22;7678;50.058;8.306;2022-08-18T09:13:46;22.30;99.90
15156;DHT22;7678;50.058;8.306;2022-08-18T09:16:26;22.60;99.90
15156;DHT22;7678;50.058;8.306;2022-08-18T09:19:15;22.80;99.90
15156;DHT22;7678;50.058;8.306;2022-08-18T09:21:51;23.10;99.90
15156;DHT22;7678;50.058;8.306;2022-08-18T09:24:25;23.00;99.60
15156;DHT22;7678;50.058;8.306;2022-08-18T09:29:50;22.90;99.90
15156;DHT22;7678;50.058;8.306;2022-08-18T09:32:41;22.80;99.90
15156;DHT22;7678;50.058;8.306;2022-08-18T09:35:31;23.00;99.10
15156;DHT22;7678;50.058;8.306;2022-08-18T09:38:09;22.80;99.70
15156;DHT22;7678;50.058;8.306;2022-08-18T09:41:03;22.50;98.80
15156;DHT22;7678;50.058;8.306;2022-08-18T09:43:56;22.50;99.90
15156;DHT22;7678;50.058;8.306;2022-08-18T09:46:59;22.70;99.10
15156;DHT22;7678;50.058;8.306;2022-08-18T09:49:48;22.80;95.20
15156;DHT22;7678;50.058;8.306;2022-08-18T09:52:47;22.60;98.70
15156;DHT22;7678;50.058;8.306;2022-08-18T09:55:41;22.50;99.90
15156;DHT22;7678;50.058;8.306;2022-08-18T09:58:46;22.50;99.50
15156;DHT22;7678;50.058;8.306;2022-08-18T10:01:34;22.60;99.90
15156;DHT22;7678;50.058;8.306;2022-08-18T10:04:25;22.70;98.60
15156;DHT22;7678;50.058;8.306;2022-08-18T10:07:27;22.80;99.00
15156;DHT22;7678;50.058;8.306;2022-08-18T10:10:14;22.40;98.70
15156;DHT22;7678;50.058;8.306;2022-08-18T10:13:12;22.70;99.80
15156;DHT22;7678;50.058;8.306;2022-08-18T10:16:04;22.50;97.50
15156;DHT22;7678;50.058;8.306;2022-08-18T10:18:57;22.70;98.50
15156;DHT22;7678;50.058;8.306;2022-08-18T10:21:59;22.80;98.20
15156;DHT22;7678;50.058;8.306;2022-08-18T10:24:22;22.80;97.10
15156;DHT22;7678;50.058;8.306;2022-08-18T10:27:04;22.90;97.70
15156;DHT22;7678;50.058;8.306;2022-08-18T10:29:44;23.00;97.20
15156;DHT22;7678;50.058;8.306;2022-08-18T10:35:01;22.60;97.20
15156;DHT22;7678;50.058;8.306;2022-08-18T10:37:36;22.80;97.20
15156;DHT22;7678;50.058;8.306;2022-08-18T10:40:16;22.90;99.50
15156;DHT22;7678;50.058;8.306;2022-08-18T10:42:51;23.00;99.20
15156;DHT22;7678;50.058;8.306;2022-08-18T10:45:25;23.00;98.20
15156;DHT22;7678;50.058;8.306;2022-08-18T10:48:09;23.10;96.70
15156;DHT22;7678;50.058;8.306;2022-08-18T10:50:50;23.20;99.00
15156;DHT22;7678;50.058;8.306;2022-08-18T10:53:27;23.10;95.90
15156;DHT22;7678;50.058;8.306;2022-08-18T10:56:28;22.90;97.60
15156;DHT22;7678;50.058;8.306;2022-08-18T10:59:08;22.70;97.70
15156;DHT22;7678;50.058;8.306;2022-08-18T11:02:02;22.80;99.60
15156;DHT22;7678;50.058;8.306;2022-08-18T11:04:41;22.80;98.40
15156;DHT22;7678;50.058;8.306;2022-08-18T11:07:18;23.10;98.60
15156;DHT22;7678;50.058;8.306;2022-08-18T11:09:52;23.20;96.10
15156;DHT22;7678;50.058;8.306;2022-08-18T11:12:56;23.50;96.70
15156;DHT22;7678;50.058;8.306;2022-08-18T11:15:59;23.90;94.20
15156;DHT22;7678;50.058;8.306;2022-08-18T11:18:39;24.00;93.10
15156;DHT22;7678;50.058;8.306;2022-08-18T11:21:33;24.10;94.60
15156;DHT22;7678;50.058;8.306;2022-08-18T11:24:13;24.60;90.20
15156;DHT22;7678;50.058;8.306;2022-08-18T11:26:47;24.90;88.50
15156;DHT22;7678;50.058;8.306;2022-08-18T11:29:26;24.80;87.70
15156;DHT22;7678;50.058;8.306;2022-08-18T11:32:02;24.40;90.00
15156;DHT22;7678;50.058;8.306;2022-08-18T11:34:41;24.10;89.30
15156;DHT22;7678;50.058;8.306;2022-08-18T11:37:22;24.20;87.10
15156;DHT22;7678;50.058;8.306;2022-08-18T11:39:56;24.60;75.20
15156;DHT22;7678;50.058;8.306;2022-08-18T11:42:29;24.60;76.90
15156;DHT22;7678;50.058;8.306;2022-08-18T11:45:06;24.70;82.80
15156;DHT22;7678;50.058;8.306;2022-08-18T11:47:36;24.80;82.40
15156;DHT22;7678;50.058;8.306;2022-08-18T11:50:08;24.90;83.80
15156;DHT22;7678;50.058;8.306;2022-08-18T11:52:49;24.80;84.90
15156;DHT22;7678;50.058;8.306;2022-08-18T11:55:27;24.30;85.70
15156;DHT22;7678;50.058;8.306;2022-08-18T11:57:57;25.00;82.60
15156;DHT22;7678;50.058;8.306;2022-08-18T12:00:55;25.20;74.40
15156;DHT22;7678;50.058;8.306;2022-08-18T12:03:35;25.20;78.40
15156;DHT22;7678;50.058;8.306;2022-08-18T12:06:17;25.50;76.40
15156;DHT22;7678;50.058;8.306;2022-08-18T12:08:56;25.40;64.80
15156;DHT22;7678;50.058;8.306;2022-08-18T12:11:27;25.90;65.70
15156;DHT22;7678;50.058;8.306;2022-08-18T12:14:00;25.80;66.60
15156;DHT22;7678;50.058;8.306;2022-08-18T12:16:51;25.70;63.70
15156;DHT22;7678;50.058;8.306;2022-08-18T12:19:21;25.90;64.30
15156;DHT22;7678;50.058;8.306;2022-08-18T12:21:52;26.00;64.40
15156;DHT22;7678;50.058;8.306;2022-08-18T12:24:23;25.70;61.40
15156;DHT22;7678;50.058;8.306;2022-08-18T12:26:55;26.20;64.20
15156;DHT22;7678;50.058;8.306;2022-08-18T12:29:26;26.10;56.90
15156;DHT22;7678;50.058;8.306;2022-08-18T12:32:17;25.80;61.70
15156;DHT22;7678;50.058;8.306;2022-08-18T12:35:07;26.00;63.80
15156;DHT22;7678;50.058;8.306;2022-08-18T12:37:41;25.90;61.80
15156;DHT22;7678;50.058;8.306;2022-08-18T12:40:30;26.20;61.30
15156;DHT22;7678;50.058;8.306;2022-08-18T12:42:59;26.10;65.50
15156;DHT22;7678;50.058;8.306;2022-08-18T12:45:27;26.20;64.50
15156;DHT22;7678;50.058;8.306;2022-08-18T12:48:01;26.20;59.60
15156;DHT22;7678;50.058;8.306;2022-08-18T12:50:31;26.30;61.80
15156;DHT22;7678;50.058;8.306;2022-08-18T12:53:09;26.30;63.40
15156;DHT22;7678;50.058;8.306;2022-08-18T12:55:40;26.60;59.30
15156;DHT22;7678;50.058;8.306;2022-08-18T12:58:11;26.90;55.60
15156;DHT22;7678;50.058;8.306;2022-08-18T13:00:41;26.80;55.50
15156;DHT22;7678;50.058;8.306;2022-08-18T13:03:18;26.30;58.40
15156;DHT22;7678;50.058;8.306;2022-08-18T13:05:46;26.30;58.40
15156;DHT22;7678;50.058;8.306;2022-08-18T13:08:20;26.00;55.80
15156;DHT22;7678;50.058;8.306;2022-08-18T13:10:59;26.30;57.30
15156;DHT22;7678;50.058;8.306;2022-08-18T13:13:41;26.10;55.50
15156;DHT22;7678;50.058;8.306;2022-08-18T13:16:10;26.00;55.50
15156;DHT22;7678;50.058;8.306;2022-08-18T13:18:58;26.10;58.70
15156;DHT22;7678;50.058;8.306;2022-08-18T13:21:27;26.10;56.10
15156;DHT22;7678;50.058;8.306;2022-08-18T13:24:10;26.20;57.60
15156;DHT22;7678;50.058;8.306;2022-08-18T13:26:44;26.10;55.70
15156;DHT22;7678;50.058;8.306;2022-08-18T13:29:14;26.30;54.60
15156;DHT22;7678;50.058;8.306;2022-08-18T13:31:44;26.40;55.50
15156;DHT22;7678;50.058;8.306;2022-08-18T13:34:25;27.00;53.00
15156;DHT22;7678;50.058;8.306;2022-08-18T13:36:56;26.70;51.90
15156;DHT22;7678;50.058;8.306;2022-08-18T13:39:24;26.50;53.90
15156;DHT22;7678;50.058;8.306;2022-08-18T13:42:00;27.20;51.50
15156;DHT22;7678;50.058;8.306;2022-08-18T13:44:49;27.10;53.10
15156;DHT22;7678;50.058;8.306;2022-08-18T13:47:19;27.10;52.70
15156;DHT22;7678;50.058;8.306;2022-08-18T13:49:49;26.90;52.20
15156;DHT22;7678;50.058;8.306;2022-08-18T13:52:25;27.10;50.60
15156;DHT22;7678;50.058;8.306;2022-08-18T13:55:02;27.80;47.80
15156;DHT22;7678;50.058;8.306;2022-08-18T13:57:38;27.90;50.60
15156;DHT22;7678;50.058;8.306;2022-08-18T14:00:09;28.20;47.70
15156;DHT22;7678;50.058;8.306;2022-08-18T14:02:48;27.80;50.50
15156;DHT22;7678;50.058;8.306;2022-08-18T14:05:20;28.20;49.50
15156;DHT22;7678;50.058;8.306;2022-08-18T14:08:03;28.30;47.50
15156;DHT22;7678;50.058;8.306;2022-08-18T14:10:32;27.90;48.00
15156;DHT22;7678;50.058;8.306;2022-08-18T14:13:02;27.40;49.10
15156;DHT22;7678;50.058;8.306;2022-08-18T14:15:46;27.40;50.10
15156;DHT22;7678;50.058;8.306;2022-08-18T14:18:19;27.60;49.40
15156;DHT22;7678;50.058;8.306;2022-08-18T14:20:56;27.50;52.60
15156;DHT22;7678;50.058;8.306;2022-08-18T14:23:42;27.20;52.20
15156;DHT22;7678;50.058;8.306;2022-08-18T14:26:27;27.60;53.80
15156;DHT22;7678;50.058;8.306;2022-08-18T14:29:17;27.70;52.70
15156;DHT22;7678;50.058;8.306;2022-08-18T14:32:06;27.10;52.70
15156;DHT22;7678;50.058;8.306;2022-08-18T14:34:43;26.80;54.30
15156;DHT22;7678;50.058;8.306;2022-08-18T14:37:18;26.80;54.20
15156;DHT22;7678;50.058;8.306;2022-08-18T14:39:49;27.30;51.50
15156;DHT22;7678;50.058;8.306;2022-08-18T14:42:20;26.80;49.90
15156;DHT22;7678;50.058;8.306;2022-08-18T14:45:09;26.80;51.30
15156;DHT22;7678;50.058;8.306;2022-08-18T14:48:00;26.80;49.40
15156;DHT22;7678;50.058;8.306;2022-08-18T14:50:34;27.10;47.20
15156;DHT22;7678;50.058;8.306;2022-08-18T14:53:05;27.20;46.90
15156;DHT22;7678;50.058;8.306;2022-08-18T14:55:33;27.30;45.70
15156;DHT22;7678;50.058;8.306;2022-08-18T14:58:04;27.30;47.00
15156;DHT22;7678;50.058;8.306;2022-08-18T15:00:33;27.40;48.60
15156;DHT22;7678;50.058;8.306;2022-08-18T15:03:20;27.30;46.20
15156;DHT22;7678;50.058;8.306;2022-08-18T15:05:58;27.40;45.00
15156;DHT22;7678;50.058;8.306;2022-08-18T15:08:32;27.30;49.60
15156;DHT22;7678;50.058;8.306;2022-08-18T15:11:02;27.30;53.20
15156;DHT22;7678;50.058;8.306;2022-08-18T15:13:38;27.50;53.90
15156;DHT22;7678;50.058;8.306;2022-08-18T15:16:08;27.30;55.40
15156;DHT22;7678;50.058;8.306;2022-08-18T15:18:39;26.90;55.90
15156;DHT22;7678;50.058;8.306;2022-08-18T15:21:09;26.70;56.30
15156;DHT22;7678;50.058;8.306;2022-08-18T15:24:06;26.60;55.70
15156;DHT22;7678;50.058;8.306;2022-08-18T15:26:53;26.90;54.60
15156;DHT22;7678;50.058;8.306;2022-08-18T15:29:25;27.10;51.80
15156;DHT22;7678;50.058;8.306;2022-08-18T15:31:56;27.10;49.70
15156;DHT22;7678;50.058;8.306;2022-08-18T15:34:32;26.90;50.60
15156;DHT22;7678;50.058;8.306;2022-08-18T15:37:17;26.80;50.80
15156;DHT22;7678;50.058;8.306;2022-08-18T15:39:59;26.80;51.00
15156;DHT22;7678;50.058;8.306;2022-08-18T15:42:31;26.80;51.80
15156;DHT22;7678;50.058;8.306;2022-08-18T15:45:00;26.40;53.40
15156;DHT22;7678;50.058;8.306;2022-08-18T15:47:39;26.30;55.80
15156;DHT22;7678;50.058;8.306;2022-08-18T15:50:09;26.30;57.90
15156;DHT22;7678;50.058;8.306;2022-08-18T15:52:53;26.10;57.50
15156;DHT22;7678;50.058;8.306;2022-08-18T15:55:25;26.30;56.30
15156;DHT22;7678;50.058;8.306;2022-08-18T15:57:54;26.10;54.90
15156;DHT22;7678;50.058;8.306;2022-08-18T16:00:25;25.90;56.60
15156;DHT22;7678;50.058;8.306;2022-08-18T16:02:56;25.80;57.30
15156;DHT22;7678;50.058;8.306;2022-08-18T16:05:27;25.70;57.40
15156;DHT22;7678;50.058;8.306;2022-08-18T16:07:57;25.60;57.60
15156;DHT22;7678;50.058;8.306;2022-08-18T16:10:30;25.80;57.70
15156;DHT22;7678;50.058;8.306;2022-08-18T16:13:00;25.60;57.50
15156;DHT22;7678;50.058;8.306;2022-08-18T16:15:34;25.50;56.00
15156;DHT22;7678;50.058;8.306;2022-08-18T16:18:03;25.60;56.50
15156;DHT22;7678;50.058;8.306;2022-08-18T16:20:35;25.50;57.70
15156;DHT22;7678;50.058;8.306;2022-08-18T16:23:03;25.30;60.40
15156;DHT22;7678;50.058;8.306;2022-08-18T16:25:38;25.20;61.30
15156;DHT22;7678;50.058;8.306;2022-08-18T16:28:07;25.10;62.30
15156;DHT22;7678;50.058;8.306;2022-08-18T16:30:35;25.10;61.40
15156;DHT22;7678;50.058;8.306;2022-08-18T16:33:05;25.20;63.40
15156;DHT22;7678;50.058;8.306;2022-08-18T16:35:35;25.50;62.50
15156;DHT22;7678;50.058;8.306;2022-08-18T16:38:10;25.50;62.10
15156;DHT22;7678;50.058;8.306;2022-08-18T16:40:40;25.50;63.90
15156;DHT22;7678;50.058;8.306;2022-08-18T16:43:09;25.10;63.70
15156;DHT22;7678;50.058;8.306;2022-08-18T16:45:40;25.40;63.10
15156;DHT22;7678;50.058;8.306;2022-08-18T16:48:09;25.40;64.30
15156;DHT22;7678;50.058;8.306;2022-08-18T16:50:43;25.30;64.70